createdAt,value
2023-02-19T00:00:01.250Z,101533.84
2023-02-19T00:00:32.866Z,101540.41
2023-02-19T00:01:24.656Z,101536.94
2023-02-19T00:01:56.177Z,101532.25
2023-02-19T00:02:27.727Z,101538.13
2023-02-19T00:02:59.329Z,101542.06
2023-02-19T00:03:30.872Z,101539.41
2023-02-19T00:04:05.508Z,101541.63
2023-02-19T00:04:37.080Z,101539.16
2023-02-19T00:05:08.820Z,101544.28
2023-02-19T00:05:40.455Z,101538.78
2023-02-19T00:06:11.965Z,101540.03
2023-02-19T00:06:44.826Z,101539.41
2023-02-19T00:07:16.476Z,101538.13
2023-02-19T00:07:47.993Z,101541.63
2023-02-19T00:08:19.548Z,101547.13
2023-02-19T00:08:51.081Z,101545.53
2023-02-19T00:09:22.627Z,101543.72
2023-02-19T00:09:54.189Z,101544.72
2023-02-19T00:10:25.817Z,101553.72
2023-02-19T00:11:08.187Z,101545.09
2023-02-19T00:11:40.517Z,101539.97
2023-02-19T00:12:12.046Z,101546.75
2023-02-19T00:12:44.244Z,101550.78
2023-02-19T00:13:15.755Z,101553.06
2023-02-19T00:13:49.687Z,101547.56
2023-02-19T00:14:21.953Z,101543.06
2023-02-19T00:14:55.114Z,101547.47
2023-02-19T00:15:26.758Z,101546.47
2023-02-19T00:15:58.439Z,101547.13
2023-02-19T00:16:38.241Z,101549.97
2023-02-19T00:17:09.780Z,101545.28
2023-02-19T00:17:41.297Z,101551.78
2023-02-19T00:18:13.015Z,101552.78
2023-02-19T00:18:45.495Z,101545.63
2023-02-19T00:19:19.029Z,101549.31
2023-02-19T00:19:50.573Z,101550.78
2023-02-19T00:20:22.141Z,101551.78
2023-02-19T00:20:56.370Z,101549.13
2023-02-19T00:21:28.112Z,101547.84
2023-02-19T00:21:59.705Z,101543.66
2023-02-19T00:22:31.311Z,101539.16
2023-02-19T00:23:02.919Z,101546.66
2023-02-19T00:23:34.805Z,101549.13
2023-02-19T00:24:07.501Z,101549.41
2023-02-19T00:24:39.204Z,101545.94
2023-02-19T00:25:10.763Z,101545.09
2023-02-19T00:25:42.350Z,101549.41
2023-02-19T00:26:18.626Z,101540.81
2023-02-19T00:26:52.036Z,101545.00
2023-02-19T00:27:23.804Z,101543.47
2023-02-19T00:27:55.383Z,101543.81
2023-02-19T00:28:28.050Z,101538.34
2023-02-19T00:29:00.857Z,101538.50
2023-02-19T00:29:32.450Z,101540.16
2023-02-19T00:30:04.169Z,101546.66
2023-02-19T00:30:35.748Z,101544.09
2023-02-19T00:31:23.583Z,101548.78
2023-02-19T00:31:55.315Z,101545.09
2023-02-19T00:32:26.957Z,101545.47
2023-02-19T00:32:58.619Z,101547.13
2023-02-19T00:33:30.167Z,101548.31
2023-02-19T00:34:05.417Z,101536.03
2023-02-19T00:34:37.092Z,101550.41
2023-02-19T00:35:08.760Z,101549.13
2023-02-19T00:35:40.282Z,101545.00
2023-02-19T00:36:12.995Z,101544.47
2023-02-19T00:36:44.659Z,101547.47
2023-02-19T00:37:16.258Z,101550.78
2023-02-19T00:37:48.622Z,101555.44
2023-02-19T00:38:20.148Z,101557.75
2023-02-19T00:38:52.114Z,101554.72
2023-02-19T00:39:23.674Z,101553.06
2023-02-19T00:39:55.323Z,101548.97
2023-02-19T00:40:26.938Z,101552.78
2023-02-19T00:41:01.789Z,101551.97
2023-02-19T00:41:33.508Z,101554.00
2023-02-19T00:42:05.048Z,101550.31
2023-02-19T00:42:36.631Z,101539.69
2023-02-19T00:43:08.149Z,101559.41
2023-02-19T00:43:39.683Z,101547.75
2023-02-19T00:44:11.964Z,101548.00
2023-02-19T00:44:43.486Z,101546.75
2023-02-19T00:45:16.978Z,101551.16
2023-02-19T00:45:48.496Z,101545.84
2023-02-19T00:46:25.690Z,101547.47
2023-02-19T00:46:58.432Z,101548.50
2023-02-19T00:47:29.971Z,101543.06
2023-02-19T00:48:01.547Z,101546.31
2023-02-19T00:48:33.076Z,101545.84
2023-02-19T00:49:06.155Z,101542.97
2023-02-19T00:49:37.672Z,101547.47
2023-02-19T00:50:09.454Z,101539.69
2023-02-19T00:50:40.995Z,101538.88
2023-02-19T00:51:12.701Z,101543.81
2023-02-19T00:51:44.588Z,101548.31
2023-02-19T00:52:16.150Z,101537.03
2023-02-19T00:52:47.669Z,101538.34
2023-02-19T00:53:19.439Z,101536.84
2023-02-19T00:53:51.319Z,101533.19
2023-02-19T00:54:23.964Z,101539.25
2023-02-19T00:54:55.585Z,101540.91
2023-02-19T00:55:27.103Z,101546.22
2023-02-19T00:55:58.671Z,101540.91
2023-02-19T00:56:30.328Z,101539.88
2023-02-19T00:57:02.106Z,101540.50
2023-02-19T00:57:33.728Z,101539.69
2023-02-19T00:58:05.372Z,101537.84
2023-02-19T00:58:37.300Z,101539.69
2023-02-19T00:59:09.513Z,101538.88
2023-02-19T00:59:41.031Z,101535.00
2023-02-19T01:00:13.151Z,101535.69
2023-02-19T01:00:44.653Z,101534.38
2023-02-19T01:01:18.137Z,101539.69
2023-02-19T01:01:49.935Z,101531.53
2023-02-19T01:02:22.250Z,101538.34
2023-02-19T01:02:54.816Z,101543.47
2023-02-19T01:03:29.978Z,101543.47
2023-02-19T01:04:01.605Z,101532.81
2023-02-19T01:04:33.216Z,101537.75
2023-02-19T01:05:05.507Z,101542.16
2023-02-19T01:05:37.068Z,101541.34
2023-02-19T01:06:10.022Z,101534.56
2023-02-19T01:06:41.846Z,101535.84
2023-02-19T01:07:13.542Z,101536.41
2023-02-19T01:07:45.204Z,101531.72
2023-02-19T01:08:17.388Z,101536.22
2023-02-19T01:08:49.676Z,101536.84
2023-02-19T01:09:21.284Z,101533.38
2023-02-19T01:09:52.777Z,101528.25
2023-02-19T01:10:24.316Z,101533.56
2023-02-19T01:10:55.845Z,101527.88
2023-02-19T01:11:27.755Z,101535.59
2023-02-19T01:11:59.357Z,101529.88
2023-02-19T01:12:31.364Z,101540.16
2023-02-19T01:13:02.898Z,101544.47
2023-02-19T01:13:35.138Z,101541.34
2023-02-19T01:14:06.742Z,101530.28
2023-02-19T01:14:38.971Z,101540.25
2023-02-19T01:15:10.593Z,101534.75
2023-02-19T01:15:42.461Z,101539.88
2023-02-19T01:16:21.941Z,101540.72
2023-02-19T01:16:53.525Z,101537.22
2023-02-19T01:17:25.068Z,101542.53
2023-02-19T01:17:56.918Z,101539.25
2023-02-19T01:18:28.551Z,101540.91
2023-02-19T01:19:00.501Z,101542.53
2023-02-19T01:19:32.959Z,101544.19
2023-02-19T01:20:04.900Z,101542.53
2023-02-19T01:20:39.576Z,101532.94
2023-02-19T01:21:16.315Z,101541.34
2023-02-19T01:21:48.078Z,101546.66
2023-02-19T01:22:19.664Z,101545.84
2023-02-19T01:22:51.205Z,101540.50
2023-02-19T01:23:23.242Z,101545.00
2023-02-19T01:23:55.874Z,101544.56
2023-02-19T01:24:29.490Z,101543.38
2023-02-19T01:25:01.133Z,101537.84
2023-02-19T01:25:32.671Z,101544.19
2023-02-19T01:26:09.152Z,101539.06
2023-02-19T01:26:40.792Z,101545.00
2023-02-19T01:27:12.454Z,101549.50
2023-02-19T01:27:44.123Z,101541.91
2023-02-19T01:28:15.646Z,101550.88
2023-02-19T01:28:48.411Z,101546.84
2023-02-19T01:29:20.018Z,101542.91
2023-02-19T01:29:51.665Z,101542.53
2023-02-19T01:30:23.229Z,101544.75
2023-02-19T01:31:00.795Z,101546.22
2023-02-19T01:31:32.911Z,101546.47
2023-02-19T01:32:06.494Z,101547.03
2023-02-19T01:32:38.384Z,101550.69
2023-02-19T01:33:10.252Z,101553.16
2023-02-19T01:33:52.734Z,101544.94
2023-02-19T01:34:24.410Z,101548.22
2023-02-19T01:34:55.907Z,101552.78
2023-02-19T01:35:27.440Z,101552.78
2023-02-19T01:35:59.103Z,101548.69
2023-02-19T01:36:33.386Z,101550.69
2023-02-19T01:37:05.792Z,101556.84
2023-02-19T01:37:37.466Z,101544.94
2023-02-19T01:38:09.144Z,101554.38
2023-02-19T01:38:40.976Z,101551.91
2023-02-19T01:39:12.654Z,101552.09
2023-02-19T01:39:44.249Z,101548.22
2023-02-19T01:40:15.831Z,101548.78
2023-02-19T01:40:56.841Z,101549.69
2023-02-19T01:41:28.305Z,101554.19
2023-02-19T01:42:00.617Z,101545.78
2023-02-19T01:42:32.314Z,101558.22
2023-02-19T01:43:04.139Z,101553.94
2023-02-19T01:44:02.350Z,101561.91
2023-02-19T01:44:33.899Z,101555.94
2023-02-19T01:45:27.554Z,101564.56
2023-02-19T01:45:59.583Z,101562.53
2023-02-19T01:46:39.662Z,101559.63
2023-02-19T01:47:12.150Z,101556.59
2023-02-19T01:47:43.802Z,101556.78
2023-02-19T01:48:25.338Z,101562.28
2023-02-19T01:48:59.592Z,101558.34
2023-02-19T01:49:37.834Z,101560.63
2023-02-19T01:50:09.559Z,101568.22
2023-02-19T01:50:59.868Z,101559.63
2023-02-19T01:51:32.962Z,101557.97
2023-02-19T01:52:11.582Z,101553.47
2023-02-19T01:52:43.288Z,101557.53
2023-02-19T01:53:17.164Z,101558.34
2023-02-19T01:53:53.628Z,101563.66
2023-02-19T01:54:27.694Z,101561.19
2023-02-19T01:55:01.230Z,101560.38
2023-02-19T01:55:33.970Z,101563.66
2023-02-19T01:56:07.126Z,101565.94
2023-02-19T01:56:41.145Z,101557.72
2023-02-19T01:57:17.335Z,101565.25
2023-02-19T01:57:53.095Z,101561.38
2023-02-19T01:58:26.591Z,101562.41
2023-02-19T01:58:59.141Z,101558.72
2023-02-19T01:59:32.347Z,101566.50
2023-02-19T02:00:09.571Z,101567.34
2023-02-19T02:00:47.648Z,101568.97
2023-02-19T02:01:19.422Z,101562.03
2023-02-19T02:01:51.405Z,101565.31
2023-02-19T02:02:25.103Z,101569.03
2023-02-19T02:02:58.056Z,101568.59
2023-02-19T02:03:29.864Z,101572.28
2023-02-19T02:04:01.515Z,101570.63
2023-02-19T02:04:33.638Z,101570.00
2023-02-19T02:05:14.369Z,101567.34
2023-02-19T02:06:05.806Z,101559.94
2023-02-19T02:06:48.471Z,101567.72
2023-02-19T02:07:38.497Z,101567.25
2023-02-19T02:08:29.367Z,101560.81
2023-02-19T02:09:19.240Z,101558.34
2023-02-19T02:10:20.613Z,101566.06
2023-02-19T02:10:52.913Z,101567.06
2023-02-19T02:11:25.199Z,101559.56
2023-02-19T02:11:56.809Z,101565.63
2023-02-19T02:12:29.459Z,101568.81
2023-02-19T02:13:01.091Z,101570.44
2023-02-19T02:13:34.611Z,101563.13
2023-02-19T02:14:06.308Z,101568.81
2023-02-19T02:14:39.493Z,101574.13
2023-02-19T02:15:13.211Z,101562.50
2023-02-19T02:15:55.674Z,101569.28
2023-02-19T02:16:39.895Z,101568.97
2023-02-19T02:17:28.892Z,101572.38
2023-02-19T02:18:23.304Z,101557.53
2023-02-19T02:19:06.758Z,101563.88
2023-02-19T02:19:47.106Z,101563.03
2023-02-19T02:20:50.991Z,101561.66
2023-02-19T02:21:41.804Z,101560.19
2023-02-19T02:22:19.634Z,101564.69
2023-02-19T02:23:00.728Z,101566.34
2023-02-19T02:23:41.849Z,101564.13
2023-02-19T02:24:35.277Z,101569.19
2023-02-19T02:25:24.575Z,101564.06
2023-02-19T02:26:10.978Z,101555.66
2023-02-19T02:26:59.688Z,101555.66
2023-02-19T02:28:01.191Z,101559.75
2023-02-19T02:29:19.780Z,101556.28
2023-02-19T02:30:24.102Z,101562.22
2023-02-19T02:31:34.802Z,101563.50
2023-02-19T02:32:11.913Z,101563.88
2023-02-19T02:32:53.359Z,101569.56
2023-02-19T02:33:30.991Z,101557.28
2023-02-19T02:34:07.809Z,101565.06
2023-02-19T02:34:58.981Z,101560.31
2023-02-19T02:35:39.756Z,101563.63
2023-02-19T02:36:29.460Z,101567.09
2023-02-19T02:37:01.726Z,101558.13
2023-02-19T02:37:35.899Z,101566.44
2023-02-19T02:38:10.269Z,101561.03
2023-02-19T02:38:43.249Z,101560.00
2023-02-19T02:39:17.760Z,101553.25
2023-02-19T02:39:51.150Z,101564.50
2023-02-19T02:40:23.029Z,101560.56
2023-02-19T02:40:55.118Z,101562.22
2023-02-19T02:41:27.050Z,101562.88
2023-02-19T02:42:18.823Z,101561.59
2023-02-19T02:43:00.407Z,101565.53
2023-02-19T02:43:32.455Z,101565.91
2023-02-19T02:44:04.239Z,101558.19
2023-02-19T02:44:36.974Z,101563.69
2023-02-19T02:45:36.586Z,101571.66
2023-02-19T02:46:34.168Z,101567.09
2023-02-19T02:47:07.068Z,101572.47
2023-02-19T02:47:45.385Z,101569.44
2023-02-19T02:48:23.333Z,101561.84
2023-02-19T02:48:59.168Z,101560.19
2023-02-19T02:49:30.882Z,101563.88
2023-02-19T02:50:05.632Z,101570.56
2023-02-19T02:50:42.884Z,101570.44
2023-02-19T02:51:22.661Z,101570.09
2023-02-19T02:52:27.635Z,101570.09
2023-02-19T02:53:24.598Z,101566.34
2023-02-19T02:54:57.601Z,101577.41
2023-02-19T02:55:31.811Z,101575.13
2023-02-19T02:56:04.398Z,101579.44
2023-02-19T02:56:40.316Z,101577.41
2023-02-19T02:57:14.885Z,101572.09
2023-02-19T02:57:52.352Z,101576.50
2023-02-19T02:58:25.146Z,101578.53
2023-02-19T02:59:01.659Z,101576.50
2023-02-19T02:59:37.381Z,101576.13
2023-02-19T03:00:09.720Z,101583.84
2023-02-19T03:01:02.308Z,101582.19
2023-02-19T03:02:18.837Z,101581.81
2023-02-19T03:02:50.821Z,101582.47
2023-02-19T03:03:24.497Z,101585.13
2023-02-19T03:04:02.565Z,101586.13
2023-02-19T03:05:04.967Z,101586.75
2023-02-19T03:05:51.777Z,101587.97
2023-02-19T03:06:24.424Z,101583.66
2023-02-19T03:06:58.114Z,101587.97
2023-02-19T03:07:36.270Z,101588.97
2023-02-19T03:08:24.277Z,101584.41
2023-02-19T03:08:55.878Z,101590.06
2023-02-19T03:09:40.674Z,101584.28
2023-02-19T03:10:18.632Z,101594.47
2023-02-19T03:11:23.194Z,101607.75
2023-02-19T03:12:15.068Z,101593.19
2023-02-19T03:13:07.208Z,101601.44
2023-02-19T03:13:57.626Z,101599.78
2023-02-19T03:14:58.024Z,101599.41
2023-02-19T03:15:55.976Z,101589.16
2023-02-19T03:16:49.728Z,101594.47
2023-02-19T03:18:02.069Z,101593.09
2023-02-19T03:18:54.692Z,101591.25
2023-02-19T03:19:27.819Z,101604.28
2023-02-19T03:20:04.447Z,101597.31
2023-02-19T03:20:40.716Z,101591.81
2023-02-19T03:21:14.471Z,101590.34
2023-02-19T03:21:53.196Z,101594.03
2023-02-19T03:22:28.208Z,101596.50
2023-02-19T03:23:02.124Z,101599.97
2023-02-19T03:23:54.349Z,101595.47
2023-02-19T03:24:50.995Z,101601.34
2023-02-19T03:25:48.057Z,101603.44
2023-02-19T03:26:25.103Z,101616.72
2023-02-19T03:26:59.634Z,101610.78
2023-02-19T03:27:34.727Z,101607.66
2023-02-19T03:28:09.122Z,101612.78
2023-02-19T03:29:01.473Z,101606.75
2023-02-19T03:29:36.070Z,101611.69
2023-02-19T03:30:16.624Z,101615.34
2023-02-19T03:30:50.941Z,101608.19
2023-02-19T03:31:24.821Z,101612.06
2023-02-19T03:32:03.579Z,101608.50
2023-02-19T03:32:45.906Z,101605.09
2023-02-19T03:33:22.654Z,101609.13
2023-02-19T03:33:57.301Z,101609.41
2023-02-19T03:34:34.773Z,101612.13
2023-02-19T03:35:10.305Z,101611.50
2023-02-19T03:35:46.701Z,101608.38
2023-02-19T03:36:25.714Z,101613.69
2023-02-19T03:37:03.881Z,101617.72
2023-02-19T03:37:42.100Z,101612.44
2023-02-19T03:38:18.671Z,101610.78
2023-02-19T03:38:59.740Z,101607.13
2023-02-19T03:39:32.368Z,101607.84
2023-02-19T03:40:05.299Z,101611.78
2023-02-19T03:40:45.303Z,101608.50
2023-02-19T03:41:25.630Z,101611.16
2023-02-19T03:42:04.179Z,101612.44
2023-02-19T03:42:46.478Z,101613.88
2023-02-19T03:43:41.007Z,101609.50
2023-02-19T03:44:31.386Z,101610.69
2023-02-19T03:45:15.538Z,101618.03
2023-02-19T03:45:53.092Z,101612.72
2023-02-19T03:47:05.492Z,101619.66
2023-02-19T03:47:49.958Z,101622.50
2023-02-19T03:48:30.947Z,101626.97
2023-02-19T03:49:11.173Z,101616.09
2023-02-19T03:49:49.900Z,101618.03
2023-02-19T03:50:28.961Z,101625.69
2023-02-19T03:51:39.104Z,101631.47
2023-02-19T03:52:39.625Z,101628.00
2023-02-19T03:53:53.057Z,101628.19
2023-02-19T03:54:43.512Z,101626.53
2023-02-19T03:55:24.201Z,101633.13
2023-02-19T03:56:19.392Z,101622.31
2023-02-19T03:57:18.253Z,101630.09
2023-02-19T03:57:56.431Z,101643.75
2023-02-19T03:58:32.755Z,101638.44
2023-02-19T03:59:16.121Z,101640.09
2023-02-19T03:59:55.461Z,101631.47
2023-02-19T04:00:53.997Z,101636.78
2023-02-19T04:01:49.121Z,101636.44
2023-02-19T04:02:41.758Z,101639.09
2023-02-19T04:03:40.118Z,101647.03
2023-02-19T04:04:30.736Z,101645.22
2023-02-19T04:05:07.096Z,101647.03
2023-02-19T04:05:44.671Z,101650.06
2023-02-19T04:06:36.702Z,101647.78
2023-02-19T04:07:08.480Z,101651.25
2023-02-19T04:07:46.402Z,101651.41
2023-02-19T04:08:20.627Z,101646.09
2023-02-19T04:09:00.733Z,101647.13
2023-02-19T04:09:43.988Z,101649.06
2023-02-19T04:10:20.202Z,101650.91
2023-02-19T04:10:55.619Z,101651.09
2023-02-19T04:11:31.318Z,101650.72
2023-02-19T04:12:07.796Z,101647.03
2023-02-19T04:12:42.571Z,101652.72
2023-02-19T04:13:21.687Z,101651.25
2023-02-19T04:14:16.525Z,101656.47
2023-02-19T04:15:15.132Z,101651.72
2023-02-19T04:15:47.320Z,101656.38
2023-02-19T04:16:23.160Z,101653.91
2023-02-19T04:17:01.564Z,101653.09
2023-02-19T04:17:49.342Z,101661.69
2023-02-19T04:18:25.189Z,101666.38
2023-02-19T04:19:00.642Z,101660.88
2023-02-19T04:19:35.487Z,101668.84
2023-02-19T04:20:09.714Z,101667.34
2023-02-19T04:20:44.307Z,101659.88
2023-02-19T04:21:16.589Z,101658.03
2023-02-19T04:21:49.390Z,101661.69
2023-02-19T04:22:22.061Z,101667.34
2023-02-19T04:22:53.799Z,101658.75
2023-02-19T04:23:26.976Z,101659.50
2023-02-19T04:24:02.532Z,101664.06
2023-02-19T04:24:47.285Z,101664.06
2023-02-19T04:25:19.025Z,101671.59
2023-02-19T04:25:55.086Z,101673.16
2023-02-19T04:26:26.738Z,101669.47
2023-02-19T04:26:58.589Z,101668.38
2023-02-19T04:27:30.454Z,101673.59
2023-02-19T04:28:02.713Z,101676.34
2023-02-19T04:28:35.335Z,101669.94
2023-02-19T04:29:07.000Z,101675.88
2023-02-19T04:29:39.375Z,101675.25
2023-02-19T04:30:16.192Z,101671.59
2023-02-19T04:30:47.933Z,101676.63
2023-02-19T04:31:19.752Z,101676.63
2023-02-19T04:31:51.488Z,101673.59
2023-02-19T04:32:23.098Z,101671.94
2023-02-19T04:32:54.864Z,101669.94
2023-02-19T04:33:26.631Z,101670.31
2023-02-19T04:33:58.162Z,101675.97
2023-02-19T04:34:29.763Z,101677.25
2023-02-19T04:35:01.334Z,101676.25
2023-02-19T04:35:32.946Z,101678.53
2023-02-19T04:36:04.841Z,101677.25
2023-02-19T04:36:36.475Z,101679.81
2023-02-19T04:37:08.175Z,101676.81
2023-02-19T04:37:39.777Z,101675.97
2023-02-19T04:38:12.372Z,101680.47
2023-02-19T04:38:43.984Z,101677.63
2023-02-19T04:39:15.588Z,101677.31
2023-02-19T04:39:48.054Z,101676.69
2023-02-19T04:40:19.692Z,101678.97
2023-02-19T04:40:51.560Z,101674.66
2023-02-19T04:41:23.209Z,101672.19
2023-02-19T04:41:54.764Z,101673.50
2023-02-19T04:42:26.433Z,101675.31
2023-02-19T04:42:58.044Z,101681.19
2023-02-19T04:43:29.626Z,101674.84
2023-02-19T04:44:01.211Z,101680.63
2023-02-19T04:44:33.841Z,101672.66
2023-02-19T04:45:05.712Z,101679.16
2023-02-19T04:45:38.466Z,101684.84
2023-02-19T04:46:10.094Z,101688.94
2023-02-19T04:46:43.160Z,101677.31
2023-02-19T04:47:17.796Z,101690.28
2023-02-19T04:47:49.353Z,101685.28
2023-02-19T04:48:21.052Z,101683.66
2023-02-19T04:48:52.662Z,101686.38
2023-02-19T04:49:24.309Z,101686.38
2023-02-19T04:49:55.900Z,101693.25
2023-02-19T04:50:27.511Z,101696.91
2023-02-19T04:50:59.178Z,101698.75
2023-02-19T04:51:30.769Z,101699.94
2023-02-19T04:52:02.334Z,101690.78
2023-02-19T04:52:33.992Z,101694.81
2023-02-19T04:53:06.187Z,101696.28
2023-02-19T04:53:37.902Z,101709.75
2023-02-19T04:54:09.573Z,101702.78
2023-02-19T04:54:41.148Z,101700.88
2023-02-19T04:55:12.709Z,101703.69
2023-02-19T04:55:45.630Z,101695.91
2023-02-19T04:56:17.674Z,101699.94
2023-02-19T04:56:50.754Z,101698.47
2023-02-19T04:57:22.310Z,101705.97
2023-02-19T04:57:53.912Z,101708.63
2023-02-19T04:58:25.546Z,101716.88
2023-02-19T04:58:57.358Z,101709.75
2023-02-19T04:59:28.959Z,101705.97
2023-02-19T05:00:00.562Z,101709.28
2023-02-19T05:00:33.880Z,101714.41
2023-02-19T05:01:05.657Z,101712.94
2023-02-19T05:01:37.368Z,101708.44
2023-02-19T05:02:09.009Z,101711.75
2023-02-19T05:02:40.736Z,101723.47
2023-02-19T05:03:12.304Z,101716.69
2023-02-19T05:03:44.524Z,101716.22
2023-02-19T05:04:16.207Z,101717.06
2023-02-19T05:04:47.980Z,101720.91
2023-02-19T05:05:19.558Z,101726.84
2023-02-19T05:05:51.124Z,101726.13
2023-02-19T05:06:22.675Z,101724.19
2023-02-19T05:06:54.308Z,101721.72
2023-02-19T05:07:25.919Z,101732.53
2023-02-19T05:07:57.539Z,101730.97
2023-02-19T05:08:29.226Z,101715.22
2023-02-19T05:09:00.843Z,101730.25
2023-02-19T05:09:32.453Z,101730.16
2023-02-19T05:10:04.152Z,101728.88
2023-02-19T05:10:35.687Z,101724.25
2023-02-19T05:11:10.815Z,101731.53
2023-02-19T05:11:42.669Z,101724.84
2023-02-19T05:12:14.259Z,101730.06
2023-02-19T05:12:46.005Z,101732.88
2023-02-19T05:13:18.010Z,101730.06
2023-02-19T05:13:49.584Z,101733.34
2023-02-19T05:14:21.259Z,101734.72
2023-02-19T05:14:52.934Z,101729.31
2023-02-19T05:15:24.474Z,101730.88
2023-02-19T05:16:00.725Z,101736.75
2023-02-19T05:16:33.232Z,101732.25
2023-02-19T05:17:05.112Z,101735.75
2023-02-19T05:17:36.932Z,101734.28
2023-02-19T05:18:08.498Z,101737.47
2023-02-19T05:18:41.388Z,101738.28
2023-02-19T05:19:13.735Z,101733.00
2023-02-19T05:19:45.326Z,101737.09
2023-02-19T05:20:17.183Z,101742.22
2023-02-19T05:20:49.371Z,101734.44
2023-02-19T05:21:21.016Z,101728.50
2023-02-19T05:21:52.583Z,101736.19
2023-02-19T05:22:24.202Z,101747.72
2023-02-19T05:22:55.898Z,101737.94
2023-02-19T05:23:27.965Z,101742.41
2023-02-19T05:23:59.488Z,101732.06
2023-02-19T05:24:31.592Z,101738.75
2023-02-19T05:25:03.250Z,101750.09
2023-02-19T05:25:34.903Z,101745.81
2023-02-19T05:26:08.415Z,101743.31
2023-02-19T05:26:40.070Z,101744.44
2023-02-19T05:27:11.736Z,101746.63
2023-02-19T05:27:43.654Z,101742.50
2023-02-19T05:28:18.086Z,101746.31
2023-02-19T05:28:52.028Z,101745.97
2023-02-19T05:29:23.589Z,101747.97
2023-02-19T05:29:55.207Z,101746.16
2023-02-19T05:30:26.744Z,101741.19
2023-02-19T05:30:58.414Z,101751.47
2023-02-19T05:31:30.430Z,101746.50
2023-02-19T05:32:02.125Z,101740.19
2023-02-19T05:32:35.235Z,101747.44
2023-02-19T05:33:06.781Z,101752.28
2023-02-19T05:33:38.453Z,101752.13
2023-02-19T05:34:10.171Z,101746.81
2023-02-19T05:34:41.723Z,101752.16
2023-02-19T05:35:13.311Z,101756.47
2023-02-19T05:35:47.470Z,101745.25
2023-02-19T05:36:20.790Z,101748.81
2023-02-19T05:36:52.389Z,101757.75
2023-02-19T05:37:23.938Z,101747.97
2023-02-19T05:37:55.539Z,101752.44
2023-02-19T05:38:27.263Z,101760.25
2023-02-19T05:38:58.846Z,101747.84
2023-02-19T05:39:30.390Z,101759.44
2023-02-19T05:40:01.974Z,101750.16
2023-02-19T05:40:34.205Z,101761.22
2023-02-19T05:41:14.643Z,101756.09
2023-02-19T05:41:46.196Z,101756.09
2023-02-19T05:42:17.756Z,101752.16
2023-02-19T05:42:49.317Z,101758.09
2023-02-19T05:43:20.933Z,101752.81
2023-02-19T05:43:53.210Z,101760.13
2023-02-19T05:44:24.899Z,101754.13
2023-02-19T05:44:56.443Z,101752.44
2023-02-19T05:45:27.983Z,101762.38
2023-02-19T05:45:59.602Z,101751.09
2023-02-19T05:46:31.519Z,101756.41
2023-02-19T05:47:03.204Z,101759.06
2023-02-19T05:47:34.757Z,101752.44
2023-02-19T05:48:07.578Z,101756.28
2023-02-19T05:48:39.382Z,101752.75
2023-02-19T05:49:10.976Z,101760.72
2023-02-19T05:49:42.503Z,101755.28
2023-02-19T05:50:14.130Z,101756.81
2023-02-19T05:50:45.796Z,101751.78
2023-02-19T05:51:22.192Z,101749.75
2023-02-19T05:51:53.734Z,101758.72
2023-02-19T05:52:25.406Z,101756.78
2023-02-19T05:52:56.968Z,101758.28
2023-02-19T05:53:28.985Z,101760.13
2023-02-19T05:54:00.589Z,101755.81
2023-02-19T05:54:32.432Z,101764.38
2023-02-19T05:55:04.145Z,101762.72
2023-02-19T05:55:36.233Z,101765.72
2023-02-19T05:56:26.062Z,101762.13
2023-02-19T05:56:58.330Z,101767.25
2023-02-19T05:57:29.877Z,101762.13
2023-02-19T05:58:01.789Z,101758.09
2023-02-19T05:58:33.329Z,101764.47
2023-02-19T05:59:08.261Z,101763.47
2023-02-19T05:59:39.814Z,101768.72
2023-02-19T06:00:13.426Z,101767.81
2023-02-19T06:00:44.998Z,101766.78
2023-02-19T06:01:17.792Z,101773.44
2023-02-19T06:01:51.266Z,101762.59
2023-02-19T06:02:22.847Z,101772.03
2023-02-19T06:02:54.685Z,101772.38
2023-02-19T06:03:26.381Z,101773.69
2023-02-19T06:03:58.359Z,101769.91
2023-02-19T06:04:29.984Z,101776.72
2023-02-19T06:05:01.561Z,101771.59
2023-02-19T06:05:33.106Z,101767.81
2023-02-19T06:06:04.944Z,101770.97
2023-02-19T06:06:37.334Z,101771.28
2023-02-19T06:07:09.282Z,101775.41
2023-02-19T06:07:41.812Z,101779.06
2023-02-19T06:08:14.047Z,101772.59
2023-02-19T06:08:45.841Z,101777.09
2023-02-19T06:09:17.682Z,101780.38
2023-02-19T06:09:51.192Z,101785.06
2023-02-19T06:10:23.437Z,101780.38
2023-02-19T06:10:55.018Z,101775.78
2023-02-19T06:11:26.587Z,101784.75
2023-02-19T06:11:58.205Z,101782.75
2023-02-19T06:12:29.781Z,101784.41
2023-02-19T06:13:01.305Z,101788.53
2023-02-19T06:13:33.063Z,101780.38
2023-02-19T06:14:05.509Z,101791.00
2023-02-19T06:14:37.108Z,101785.22
2023-02-19T06:15:08.844Z,101781.09
2023-02-19T06:15:40.521Z,101786.88
2023-02-19T06:16:12.310Z,101788.72
2023-02-19T06:16:43.976Z,101788.41
2023-02-19T06:17:15.851Z,101784.75
2023-02-19T06:17:47.825Z,101795.50
2023-02-19T06:18:19.365Z,101793.00
2023-02-19T06:18:51.358Z,101791.19
2023-02-19T06:19:22.896Z,101788.06
2023-02-19T06:19:54.446Z,101798.69
2023-02-19T06:20:26.395Z,101789.72
2023-02-19T06:21:02.086Z,101791.38
2023-02-19T06:21:34.068Z,101794.47
2023-02-19T06:22:05.827Z,101796.66
2023-02-19T06:22:37.540Z,101791.84
2023-02-19T06:23:09.205Z,101800.16
2023-02-19T06:23:41.239Z,101801.16
2023-02-19T06:24:12.808Z,101809.00
2023-02-19T06:24:44.425Z,101805.34
2023-02-19T06:25:16.355Z,101809.94
2023-02-19T06:25:47.909Z,101810.66
2023-02-19T06:26:24.748Z,101813.25
2023-02-19T06:26:56.422Z,101816.25
2023-02-19T06:27:28.337Z,101813.88
2023-02-19T06:27:59.838Z,101799.75
2023-02-19T06:28:31.410Z,101810.28
2023-02-19T06:29:03.056Z,101815.66
2023-02-19T06:29:34.752Z,101813.31
2023-02-19T06:30:06.955Z,101812.31
2023-02-19T06:30:38.528Z,101811.66
2023-02-19T06:31:11.365Z,101813.78
2023-02-19T06:31:44.354Z,101816.78
2023-02-19T06:32:16.115Z,101813.66
2023-02-19T06:32:47.821Z,101822.81
2023-02-19T06:33:19.425Z,101822.97
2023-02-19T06:33:51.028Z,101829.59
2023-02-19T06:34:22.596Z,101830.41
2023-02-19T06:34:54.140Z,101826.88
2023-02-19T06:35:25.708Z,101832.22
2023-02-19T06:36:01.950Z,101824.28
2023-02-19T06:36:33.666Z,101838.19
2023-02-19T06:37:05.248Z,101830.88
2023-02-19T06:37:36.806Z,101836.91
2023-02-19T06:38:08.346Z,101831.53
2023-02-19T06:38:40.041Z,101844.16
2023-02-19T06:39:11.591Z,101837.19
2023-02-19T06:39:43.876Z,101835.53
2023-02-19T06:40:16.091Z,101840.53
2023-02-19T06:40:47.679Z,101838.53
2023-02-19T06:41:19.541Z,101838.72
2023-02-19T06:41:51.098Z,101845.22
2023-02-19T06:42:22.754Z,101854.13
2023-02-19T06:42:54.313Z,101846.81
2023-02-19T06:43:25.912Z,101851.09
2023-02-19T06:43:58.402Z,101842.50
2023-02-19T06:44:30.090Z,101850.81
2023-02-19T06:45:01.624Z,101848.81